Time;durP1;ratioP1;P1;durP2;ratioP2;P2;SDS_P1;SDS_P2;PMS_P1;PMS_P2;Temp;Humidity;BMP_temperature;BMP_pressure;BME280_temperature;BME280_humidity;BME280_pressure;Samples;Min_cycle;Max_cycle;Signal;HPM_P1;HPM_P2
2023/03/21 00:01:29;;;;;;;11.98;7.38;;;;;;;11.53;58.53;101150.19;4973460;28;20046;-82
2023/03/21 00:03:54;;;;;;;11.50;6.43;;;;;;;11.63;58.68;101169.59;4974472;28;20480;-82
2023/03/21 00:06:20;;;;;;;9.27;7.10;;;;;;;11.58;58.66;101154.22;4977322;28;20034;-82
2023/03/21 00:08:46;;;;;;;10.93;6.60;;;;;;;11.49;58.47;101149.44;4976636;28;20081;-82
2023/03/21 00:11:11;;;;;;;10.20;6.50;;;;;;;11.52;59.06;101158.88;4960570;28;20040;-82
2023/03/21 00:13:37;;;;;;;11.35;6.53;;;;;;;11.46;59.25;101152.19;4993105;28;20122;-82
2023/03/21 00:16:14;;;;;;;12.02;7.13;;;;;;;11.53;58.88;101156.19;4976944;28;20100;-82
2023/03/21 00:18:41;;;;;;;10.45;5.75;;;;;;;11.55;58.92;101153.53;4993452;28;20108;-82
2023/03/21 00:21:07;;;;;;;10.60;5.97;;;;;;;11.41;58.50;101142.03;4960706;28;20030;-82
2023/03/21 00:23:33;;;;;;;6.75;4.93;;;;;;;11.44;58.17;101143.66;4976511;28;20045;-82
2023/03/21 00:25:59;;;;;;;9.50;4.93;;;;;;;11.34;58.05;101129.41;4960351;28;20022;-82
2023/03/21 00:28:24;;;;;;;10.68;5.53;;;;;;;11.57;58.58;101144.78;4960519;28;20404;-82
2023/03/21 00:30:50;;;;;;;6.57;4.60;;;;;;;11.44;58.19;101125.50;4976574;28;20496;-82
2023/03/21 00:33:19;;;;;;;11.00;4.72;;;;;;;11.43;57.96;101129.03;4960526;28;20080;-82
2023/03/21 00:35:46;;;;;;;9.13;4.55;;;;;;;11.40;57.75;101113.59;4976856;28;20133;-82
2023/03/21 00:38:12;;;;;;;5.10;4.28;;;;;;;11.68;57.94;101134.75;4976703;28;20053;-82
2023/03/21 00:40:38;;;;;;;7.10;4.70;;;;;;;11.75;57.26;101124.97;4960295;28;20030;-82
2023/03/21 00:43:03;;;;;;;6.53;3.95;;;;;;;11.91;57.71;101128.56;4976523;28;20081;-82
2023/03/21 00:45:29;;;;;;;5.15;3.70;;;;;;;12.12;57.13;101131.06;4993457;28;20504;-82
2023/03/21 00:47:55;;;;;;;7.82;4.90;;;;;;;11.88;57.32;101076.84;4976210;28;20022;-82
2023/03/21 00:50:20;;;;;;;8.02;4.15;;;;;;;12.14;56.89;101124.06;4992179;28;20045;-82
2023/03/21 00:52:46;;;;;;;6.53;4.22;;;;;;;11.98;57.00;101129.13;4991840;28;20037;-82
2023/03/21 00:55:13;;;;;;;6.95;5.10;;;;;;;11.94;57.33;101130.19;4993564;28;20026;-82
2023/03/21 00:57:39;;;;;;;10.38;4.93;;;;;;;11.89;57.61;101129.53;4960070;28;20026;-82
2023/03/21 01:00:06;;;;;;;10.55;4.88;;;;;;;11.86;57.71;101132.28;4976309;28;20404;-82
2023/03/21 01:02:32;;;;;;;7.93;4.40;;;;;;;11.89;57.63;101137.31;4960265;28;20026;-82
2023/03/21 01:04:57;;;;;;;12.52;6.03;;;;;;;11.95;57.61;101137.88;4976299;28;20038;-82
2023/03/21 01:07:23;;;;;;;7.75;4.45;;;;;;;12.04;58.53;101136.63;4991746;28;20030;-82
2023/03/21 01:09:49;;;;;;;10.45;5.57;;;;;;;11.96;57.94;101129.19;4975825;28;20480;-82
2023/03/21 01:12:15;;;;;;;8.07;4.60;;;;;;;11.98;59.02;101131.69;4992969;28;20109;-82
2023/03/21 01:14:41;;;;;;;8.05;5.35;;;;;;;11.96;58.92;101125.75;4975348;28;20033;-82
2023/03/21 01:17:06;;;;;;;7.95;5.22;;;;;;;11.90;58.48;101107.91;4975124;28;20033;-82
2023/03/21 01:19:32;;;;;;;6.43;4.05;;;;;;;12.10;58.75;101145.88;4992183;28;20469;-82
2023/03/21 01:21:57;;;;;;;7.53;4.30;;;;;;;12.07;59.03;101144.25;4975321;28;20023;-82
2023/03/21 01:24:23;;;;;;;8.52;4.45;;;;;;;12.04;59.35;101134.03;4959438;28;20023;-82
2023/03/21 01:26:48;;;;;;;13.02;4.45;;;;;;;12.03;59.11;101127.16;4975610;28;20039;-82
2023/03/21 01:29:14;;;;;;;6.50;3.92;;;;;;;11.86;59.60;101106.34;4975543;28;20476;-82
2023/03/21 01:31:39;;;;;;;4.93;3.95;;;;;;;11.90;59.04;101102.72;4991298;28;20030;-82
2023/03/21 01:34:05;;;;;;;6.18;3.90;;;;;;;12.03;59.13;101132.34;4975356;28;20033;-82
2023/03/21 01:36:31;;;;;;;4.97;3.30;;;;;;;12.14;59.33;101116.28;4974839;28;20439;-82
2023/03/21 01:38:56;;;;;;;6.43;4.18;;;;;;;12.12;59.25;101124.13;4975421;28;20037;-82
2023/03/21 01:41:33;;;;;;;7.00;4.15;;;;;;;12.13;59.01;101120.63;4991417;28;20030;-82
2023/03/21 01:43:59;;;;;;;6.20;3.90;;;;;;;12.12;59.77;101136.25;4975476;28;20498;-82
2023/03/21 01:46:32;;;;;;;8.73;3.90;;;;;;;12.11;59.98;101130.25;4991388;28;20034;-82
2023/03/21 01:49:09;;;;;;;7.72;4.45;;;;;;;12.07;58.90;101126.09;4991086;28;20050;-82
2023/03/21 01:51:37;;;;;;;8.07;4.13;;;;;;;11.87;59.26;101088.13;4991292;28;20081;-82
2023/03/21 01:54:03;;;;;;;5.53;3.42;;;;;;;12.11;60.12;101125.06;4975345;28;20031;-82
2023/03/21 01:56:32;;;;;;;4.75;3.63;;;;;;;12.10;59.38;101118.19;4958894;28;20092;-82
2023/03/21 01:59:09;;;;;;;8.95;3.65;;;;;;;12.16;59.15;101115.28;4975214;28;20069;-82
2023/03/21 02:01:37;;;;;;;5.30;3.38;;;;;;;12.09;58.58;101108.69;4975494;28;20022;-82
2023/03/21 02:04:02;;;;;;;6.78;3.92;;;;;;;12.11;58.70;101111.25;4974851;28;20480;-82
2023/03/21 02:06:43;;;;;;;5.30;3.88;;;;;;;11.89;60.35;101082.88;4958743;28;20033;-82
2023/03/21 02:09:11;;;;;;;4.47;3.40;;;;;;;11.93;60.62;101097.38;4959238;28;20027;-82
2023/03/21 02:11:36;;;;;;;5.88;4.10;;;;;;;11.94;61.52;101110.28;4974853;28;20519;-82
2023/03/21 02:14:02;;;;;;;10.63;3.83;;;;;;;11.86;61.07;101088.22;4958325;28;20074;-82
2023/03/21 02:16:32;;;;;;;4.95;3.72;;;;;;;11.90;60.97;101095.78;4974786;28;20034;-82
2023/03/21 02:19:22;;;;;;;5.32;3.70;;;;;;;11.93;61.47;101097.38;4974721;28;20065;-82
2023/03/21 02:21:57;;;;;;;6.63;4.32;;;;;;;11.77;61.84;101082.50;4990735;28;20117;-82
2023/03/21 02:24:53;;;;;;;8.27;4.18;;;;;;;11.85;61.41;101094.31;4992242;28;20030;-82
2023/03/21 02:27:22;;;;;;;6.18;3.58;;;;;;;11.78;61.96;101089.38;4991060;28;20416;-82
2023/03/21 02:30:09;;;;;;;6.28;3.95;;;;;;;11.64;61.24;101055.50;4974643;28;20038;-82
2023/03/21 02:32:34;;;;;;;7.53;3.92;;;;;;;11.53;61.86;101080.22;4960051;28;20030;-82
2023/03/21 02:35:12;;;;;;;6.35;3.92;;;;;;;11.32;61.30;101053.53;4990369;28;20108;-82
2023/03/21 02:37:49;;;;;;;6.53;3.58;;;;;;;11.60;61.19;101074.69;4990602;28;20037;-82
2023/03/21 02:40:41;;;;;;;9.20;3.85;;;;;;;11.72;60.84;101084.50;4974718;28;20038;-82
2023/03/21 02:43:19;;;;;;;5.80;3.50;;;;;;;11.81;60.14;101091.03;4959141;28;20045;-82
2023/03/21 02:45:50;;;;;;;6.80;3.15;;;;;;;11.83;60.26;101086.59;4990505;28;20101;-82
2023/03/21 02:48:21;;;;;;;4.05;2.97;;;;;;;11.95;59.91;101093.81;4974571;28;20061;-82
2023/03/21 02:50:48;;;;;;;5.55;3.55;;;;;;;12.06;59.67;101088.09;4974584;28;20101;-82
2023/03/21 02:53:16;;;;;;;4.90;3.25;;;;;;;12.24;59.61;101084.63;4974341;28;20500;-82
2023/03/21 02:55:42;;;;;;;3.92;2.22;;;;;;;12.16;59.38;101047.84;4958186;28;20552;-82
2023/03/21 02:58:09;;;;;;;4.50;2.65;;;;;;;12.45;58.99;101069.75;4973851;28;20109;-82
2023/03/21 03:00:35;;;;;;;4.40;2.72;;;;;;;12.66;58.10;101086.03;4958105;28;20029;-82
2023/03/21 03:03:02;;;;;;;3.25;2.42;;;;;;;12.75;58.41;101088.16;4973407;28;20032;-82
2023/03/21 03:05:29;;;;;;;2.80;2.13;;;;;;;12.83;57.86;101096.41;4973981;28;20496;-82
2023/03/21 03:08:16;;;;;;;3.47;2.00;;;;;;;12.62;57.78;101071.53;4957955;28;20042;-82
2023/03/21 03:11:04;;;;;;;4.60;2.33;;;;;;;12.89;57.65;101111.69;4989966;28;20488;-82
2023/03/21 03:13:51;;;;;;;19.75;3.03;;;;;;;12.96;57.37;101113.94;4990169;28;20030;-82
2023/03/21 03:16:42;;;;;;;4.18;2.67;;;;;;;12.90;57.91;101121.16;4990997;28;20030;-82
2023/03/21 03:19:09;;;;;;;4.70;2.67;;;;;;;12.83;58.97;101108.53;4990100;28;20041;-82
2023/03/21 03:21:49;;;;;;;3.78;2.40;;;;;;;12.81;59.19;101115.56;4974032;28;20026;-82
2023/03/21 03:24:23;;;;;;;3.70;2.67;;;;;;;12.71;58.43;101099.63;4958774;28;20027;-82
2023/03/21 03:27:00;;;;;;;4.97;3.53;;;;;;;12.70;59.07;101103.13;4974467;28;20476;-82
2023/03/21 03:29:27;;;;;;;5.28;3.55;;;;;;;12.54;59.72;101095.25;4957943;28;20027;-82
2023/03/21 03:31:55;;;;;;;3.47;2.78;;;;;;;12.57;59.33;101083.88;4973367;28;20030;-82
2023/03/21 03:34:22;;;;;;;4.13;2.97;;;;;;;12.57;59.71;101083.88;4989509;28;20109;-82
2023/03/21 03:36:54;;;;;;;5.30;3.13;;;;;;;12.62;59.89;101102.69;4973775;28;20031;-82
2023/03/21 03:39:20;;;;;;;3.70;2.78;;;;;;;12.62;59.58;101108.69;4991556;28;20462;-82
2023/03/21 03:41:53;;;;;;;6.68;3.85;;;;;;;12.56;59.93;101106.41;4977266;28;20038;-82
2023/03/21 03:44:19;;;;;;;4.57;3.30;;;;;;;12.55;59.91;101106.47;4962061;28;20030;-82
2023/03/21 03:47:08;;;;;;;8.75;4.50;;;;;;;12.40;60.42;101107.25;4977148;28;20022;-82
2023/03/21 03:50:00;;;;;;;4.30;3.20;;;;;;;12.40;60.84;101118.47;4990582;28;20041;-82
2023/03/21 03:52:28;;;;;;;6.35;3.67;;;;;;;12.29;60.94;101100.84;4993267;28;20034;-81
2023/03/21 03:54:54;;;;;;;5.18;3.70;;;;;;;12.11;61.25;101080.13;4977425;28;20030;-80
2023/03/21 03:57:19;;;;;;;6.47;4.35;;;;;;;12.25;61.31;101117.44;4993760;28;20096;-81
2023/03/21 03:59:45;;;;;;;10.48;4.57;;;;;;;12.32;61.03;101108.44;4960709;28;20037;-81
2023/03/21 04:02:11;;;;;;;6.55;4.28;;;;;;;12.30;61.18;101115.47;4976852;28;20484;-81
2023/03/21 04:04:37;;;;;;;7.45;4.30;;;;;;;12.27;61.64;101122.53;4977202;28;20034;-81
2023/03/21 04:07:03;;;;;;;8.25;4.47;;;;;;;12.22;61.84;101115.00;4976853;28;20038;-81
2023/03/21 04:09:28;;;;;;;8.85;4.82;;;;;;;12.18;61.72;101105.66;4977166;28;20031;-81
2023/03/21 04:11:54;;;;;;;9.27;5.20;;;;;;;12.11;61.91;101122.47;4976892;28;20404;-81
2023/03/21 04:14:20;;;;;;;8.95;4.32;;;;;;;12.03;61.93;101109.84;4976704;28;20496;-81
2023/03/21 04:16:46;;;;;;;6.57;4.40;;;;;;;12.06;62.00;101119.22;4976866;28;20543;-81
2023/03/21 04:19:11;;;;;;;10.45;5.28;;;;;;;12.09;62.48;101142.41;4976841;28;20026;-81
2023/03/21 04:21:37;;;;;;;7.35;4.75;;;;;;;12.03;62.87;101150.50;4976468;28;20102;-81
2023/03/21 04:24:03;;;;;;;12.73;5.63;;;;;;;11.92;62.63;101124.22;4992594;28;20037;-79
2023/03/21 04:26:31;;;;;;;6.57;4.50;;;;;;;12.18;61.83;101143.75;4992455;28;20049;-80
2023/03/21 04:28:59;;;;;;;5.60;3.40;;;;;;;12.15;61.65;101136.94;4992600;28;20058;-79
2023/03/21 04:31:27;;;;;;;6.57;4.63;;;;;;;12.02;62.20;101138.44;4976653;28;20034;-79
2023/03/21 04:33:54;;;;;;;8.27;5.18;;;;;;;11.97;63.12;101140.41;4992838;28;20037;-79
2023/03/21 04:36:37;;;;;;;8.50;5.13;;;;;;;11.73;63.45;101114.69;4975819;28;20058;-79
2023/03/21 04:39:11;;;;;;;;;;;;;;;11.81;63.74;101142.88;4977458;28;20546;-79
2023/03/21 04:41:37;;;;;;;11.90;7.13;;;;;;;11.45;65.06;101133.22;5007559;28;19917;-80
2023/03/21 04:44:03;;;;;;;10.38;5.65;;;;;;;11.32;65.27;101128.66;4975681;28;20053;-80
2023/03/21 04:46:28;;;;;;;10.52;5.78;;;;;;;11.28;65.12;101129.69;4992510;28;20476;-80
2023/03/21 04:48:54;;;;;;;7.35;5.90;;;;;;;11.35;65.63;101146.66;4993024;28;20034;-80
2023/03/21 04:51:19;;;;;;;11.98;6.90;;;;;;;11.19;65.48;101136.94;4959822;28;20041;-80
2023/03/21 04:53:48;;;;;;;9.35;6.13;;;;;;;11.09;65.95;101120.13;4959647;28;20500;-80
2023/03/21 04:56:14;;;;;;;7.43;5.30;;;;;;;11.26;65.70;101167.75;4992286;28;20038;-81
2023/03/21 04:58:40;;;;;;;10.43;6.60;;;;;;;11.18;65.42;101148.19;4991351;28;20113;-81
2023/03/21 05:01:06;;;;;;;24.65;8.88;;;;;;;11.34;65.23;101176.06;4973900;28;20463;-81
2023/03/21 05:03:33;;;;;;;17.00;10.05;;;;;;;11.27;65.59;101169.44;4975830;28;20038;-81
2023/03/21 05:06:02;;;;;;;10.80;7.32;;;;;;;11.25;65.16;101151.38;4991453;28;20496;-80
2023/03/21 05:08:27;;;;;;;14.68;8.88;;;;;;;11.35;65.21;101162.19;4990265;28;20034;-81
2023/03/21 05:10:53;;;;;;;10.02;6.22;;;;;;;11.34;65.35;101163.09;4991627;28;20542;-81
2023/03/21 05:13:18;;;;;;;10.18;6.45;;;;;;;11.38;65.07;101164.63;4991972;28;20056;-81
2023/03/21 05:15:44;;;;;;;21.02;7.38;;;;;;;11.29;65.23;101162.44;4991246;28;20506;-81
2023/03/21 05:18:09;;;;;;;10.38;7.10;;;;;;;11.28;65.21;101171.97;4975650;28;20030;-81
2023/03/21 05:20:41;;;;;;;12.45;6.50;;;;;;;11.23;65.61;101162.72;4991575;28;20027;-83
2023/03/21 05:23:09;;;;;;;12.85;7.50;;;;;;;11.26;65.72;101173.78;4988132;28;20515;-84
2023/03/21 05:25:36;;;;;;;22.77;8.93;;;;;;;11.32;65.52;101177.88;4992249;28;20045;-85
2023/03/21 05:28:03;;;;;;;12.80;7.80;;;;;;;11.37;65.69;101176.75;4956707;28;20030;-85
2023/03/21 05:30:28;;;;;;;15.57;8.88;;;;;;;11.33;65.59;101180.38;4971733;28;20598;-88
2023/03/21 05:32:54;;;;;;;13.18;7.68;;;;;;;11.31;65.44;101182.22;4987657;28;20093;-91
2023/03/21 05:35:19;;;;;;;16.40;9.13;;;;;;;11.38;65.36;101182.75;4974988;28;20062;-84
2023/03/21 05:37:45;;;;;;;14.27;9.07;;;;;;;11.33;65.83;101187.31;4991075;28;20080;-83
2023/03/21 05:40:11;;;;;;;26.15;10.70;;;;;;;11.39;65.84;101194.81;4990177;28;20034;-81
2023/03/21 05:42:36;;;;;;;27.27;9.32;;;;;;;11.34;65.62;101182.06;4971234;28;20031;-83
2023/03/21 05:45:02;;;;;;;17.02;11.48;;;;;;;11.29;65.72;101172.81;4992375;28;20026;-87
2023/03/21 05:47:27;;;;;;;19.65;11.95;;;;;;;11.52;65.61;101183.03;4974555;28;20026;-89
2023/03/21 05:49:53;;;;;;;38.35;21.88;;;;;;;11.47;65.55;101167.66;4989644;28;20037;-86
2023/03/21 05:52:18;;;;;;;20.30;11.45;;;;;;;11.68;65.19;101191.78;4987642;28;20117;-89
2023/03/21 05:54:44;;;;;;;24.98;12.45;;;;;;;11.74;64.56;101181.16;4945393;28;20061;-81
2023/03/21 05:57:09;;;;;;;17.42;11.95;;;;;;;11.81;64.40;101180.91;4973347;28;20076;-83
2023/03/21 05:59:35;;;;;;;21.83;13.07;;;;;;;11.94;64.26;101176.84;5002298;28;20035;-91
2023/03/21 06:02:00;;;;;;;16.92;11.52;;;;;;;11.95;64.19;101175.94;4970327;28;20030;-85
2023/03/21 06:04:26;;;;;;;18.88;13.18;;;;;;;12.02;63.41;101177.34;4989078;28;20085;-91
2023/03/21 06:06:52;;;;;;;17.67;11.73;;;;;;;12.04;63.37;101168.56;4971771;28;20041;-85
2023/03/21 06:09:19;;;;;;;20.33;11.15;;;;;;;12.23;62.57;101186.72;4962670;28;20034;-90
2023/03/21 06:11:47;;;;;;;13.95;8.35;;;;;;;12.14;62.69;101179.38;4956636;28;20037;-82
2023/03/21 06:14:12;;;;;;;20.75;10.77;;;;;;;12.24;62.97;101187.56;4975697;28;20022;-93
2023/03/21 06:16:38;;;;;;;16.70;10.48;;;;;;;12.29;62.52;101190.75;4973483;28;20096;-81
2023/03/21 06:19:03;;;;;;;15.00;10.35;;;;;;;12.31;61.71;101189.78;5007169;28;20030;-85
2023/03/21 06:21:29;;;;;;;20.92;10.30;;;;;;;12.17;61.99;101179.22;5001421;28;20085;-91
2023/03/21 06:23:54;;;;;;;22.80;10.73;;;;;;;12.34;61.94;101196.59;4978613;28;20486;-88
2023/03/21 06:26:21;;;;;;;19.25;9.63;;;;;;;12.33;61.73;101193.16;4996461;28;20025;-89
2023/03/21 06:28:48;;;;;;;23.35;12.23;;;;;;;12.34;61.92;101187.03;4991363;28;20578;-94
2023/03/21 06:31:14;;;;;;;15.55;9.32;;;;;;;12.39;61.61;101189.44;4975496;28;20018;-91
2023/03/21 06:33:40;;;;;;;21.73;10.23;;;;;;;12.42;61.25;101189.28;4971370;28;20122;-84
2023/03/21 06:36:06;;;;;;;21.23;9.38;;;;;;;12.49;61.34;101184.66;5003255;28;20070;-87
2023/03/21 06:38:31;;;;;;;17.08;9.65;;;;;;;12.49;60.70;101177.72;4985581;28;20492;-85
2023/03/21 06:40:57;;;;;;;17.00;11.00;;;;;;;12.49;60.62;101166.50;4987292;28;20034;-87
2023/03/21 06:43:22;;;;;;;18.13;9.75;;;;;;;12.39;60.96;101176.47;4977098;28;20540;-82
2023/03/21 06:45:48;;;;;;;18.83;10.95;;;;;;;12.37;61.04;101174.84;4993703;28;20053;-94
2023/03/21 06:48:13;;;;;;;16.65;10.20;;;;;;;12.41;61.26;101168.59;4964869;28;20480;-90
2023/03/21 06:50:39;;;;;;;16.60;11.00;;;;;;;12.56;60.87;101186.03;4957066;28;20033;-92
2023/03/21 06:53:04;;;;;;;16.88;9.23;;;;;;;12.50;61.19;101165.56;4974365;28;20097;-85
2023/03/21 06:55:30;;;;;;;17.92;10.57;;;;;;;12.68;61.13;101195.81;4969037;28;20068;-85
2023/03/21 06:57:56;;;;;;;17.55;10.25;;;;;;;12.68;60.77;101184.59;4981195;28;20408;-85
2023/03/21 07:00:22;;;;;;;16.00;10.00;;;;;;;12.80;61.63;101195.22;4967041;28;20165;-92
2023/03/21 07:02:47;;;;;;;20.08;9.95;;;;;;;12.75;62.00;101171.22;4979423;28;20071;-81
2023/03/21 07:05:13;;;;;;;19.10;10.43;;;;;;;12.90;62.16;101188.66;4986565;28;20416;-80
2023/03/21 07:07:39;;;;;;;21.02;12.38;;;;;;;12.90;61.51;101193.84;4956708;28;20035;-85
2023/03/21 07:10:05;;;;;;;16.38;9.90;;;;;;;13.01;61.43;101200.28;4981630;28;20145;-91
2023/03/21 07:12:33;;;;;;;18.80;11.25;;;;;;;13.02;60.51;101205.38;4971576;28;20029;-90
2023/03/21 07:14:59;;;;;;;21.80;12.27;;;;;;;13.10;58.94;101202.41;4979128;28;20120;-92
2023/03/21 07:17:28;;;;;;;20.90;12.38;;;;;;;13.20;58.64;101214.91;4978602;28;20030;-93
2023/03/21 07:19:53;;;;;;;28.10;15.07;;;;;;;13.13;58.57;101205.69;4986333;28;20084;-90
2023/03/21 07:22:19;;;;;;;27.83;12.90;;;;;;;13.29;58.52;101223.16;4988317;28;20511;-94
2023/03/21 07:24:47;;;;;;;23.77;11.15;;;;;;;13.33;58.75;101215.09;4977760;28;20045;-85
2023/03/21 07:27:13;;;;;;;24.88;11.88;;;;;;;13.48;57.50;101221.28;4992150;28;20025;-90
2023/03/21 07:29:39;;;;;;;19.58;12.52;;;;;;;13.54;57.48;101220.13;4972757;28;20065;-86
2023/03/21 07:32:05;;;;;;;20.48;10.60;;;;;;;13.59;57.62;101231.13;4978246;28;20412;-86
2023/03/21 07:34:32;;;;;;;17.73;11.68;;;;;;;13.71;57.98;101228.72;5011994;28;20046;-81
2023/03/21 07:36:57;;;;;;;17.65;10.95;;;;;;;13.77;57.32;101217.19;4996026;28;20080;-90
2023/03/21 07:39:22;;;;;;;23.90;11.95;;;;;;;13.88;57.96;101222.66;5004491;28;20057;-92
2023/03/21 07:41:48;;;;;;;24.17;10.65;;;;;;;13.88;58.66;101191.44;4991968;28;20483;-83
2023/03/21 07:44:14;;;;;;;20.58;10.82;;;;;;;14.18;57.35;101224.53;5006995;28;20048;-79
2023/03/21 07:46:40;;;;;;;21.13;11.50;;;;;;;14.15;56.00;101185.63;4979490;28;20038;-80
2023/03/21 07:49:05;;;;;;;26.73;13.30;;;;;;;14.29;55.48;101203.94;4978697;28;20026;-84
2023/03/21 07:51:31;;;;;;;19.85;11.75;;;;;;;14.37;55.41;101214.78;4987986;28;20422;-83
2023/03/21 07:53:56;;;;;;;22.73;12.88;;;;;;;14.39;55.22;101209.47;4967441;28;20057;-83
2023/03/21 07:56:22;;;;;;;21.55;12.93;;;;;;;14.53;54.60;101218.22;4990614;28;20034;-85
2023/03/21 07:58:47;;;;;;;26.20;12.55;;;;;;;14.58;54.83;101211.00;4992405;28;20035;-91
2023/03/21 08:01:13;;;;;;;43.65;22.83;;;;;;;14.67;54.25;101206.22;4975668;28;20030;-82
2023/03/21 08:03:38;;;;;;;20.58;11.57;;;;;;;14.82;53.78;101208.75;4975870;28;20038;-89
2023/03/21 08:06:04;;;;;;;25.27;13.15;;;;;;;15.04;57.29;101199.69;4976024;28;20022;-80
2023/03/21 08:08:30;;;;;;;76.97;36.33;;;;;;;15.23;54.15;101189.88;4992705;28;20129;-82
2023/03/21 08:10:55;;;;;;;38.88;18.73;;;;;;;15.41;52.90;101183.56;4989783;28;20508;-80
2023/03/21 08:13:21;;;;;;;34.20;14.55;;;;;;;15.50;52.13;101176.97;4993286;28;20050;-85
2023/03/21 08:15:47;;;;;;;18.98;9.98;;;;;;;15.50;51.58;101161.31;4993491;28;20085;-85
2023/03/21 08:18:12;;;;;;;22.25;10.68;;;;;;;15.61;51.13;101171.13;4992381;28;20030;-88
2023/03/21 08:20:38;;;;;;;17.88;10.55;;;;;;;15.83;50.86;101181.06;4992443;28;20101;-86
2023/03/21 08:23:07;;;;;;;29.88;12.43;;;;;;;15.88;50.31;101182.47;4974417;28;20105;-86
2023/03/21 08:25:32;;;;;;;32.70;13.00;;;;;;;15.85;51.35;101184.44;4986996;28;20042;-86
2023/03/21 08:27:58;;;;;;;21.83;11.38;;;;;;;16.04;51.71;101177.97;4971746;28;20034;-83
2023/03/21 08:30:24;;;;;;;21.52;12.85;;;;;;;15.89;50.82;101141.56;4986185;28;20035;-81
2023/03/21 08:32:50;;;;;;;19.45;10.55;;;;;;;16.14;50.01;101161.72;4972568;28;20061;-86
2023/03/21 08:35:17;;;;;;;27.95;18.10;;;;;;;16.27;49.64;101173.91;4997212;28;20089;-84
2023/03/21 08:37:42;;;;;;;20.33;10.90;;;;;;;16.33;49.91;101170.06;4971554;28;20038;-83
2023/03/21 08:40:10;;;;;;;24.17;10.35;;;;;;;16.39;48.04;101172.25;4974264;28;20030;-89
2023/03/21 08:42:39;;;;;;;18.48;9.20;;;;;;;16.33;47.72;101168.28;4993391;28;20165;-83
2023/03/21 08:45:05;;;;;;;18.40;10.35;;;;;;;16.26;48.12;101164.38;4978955;28;20038;-82
2023/03/21 08:47:30;;;;;;;23.65;13.32;;;;;;;16.15;48.13;101148.56;4975085;28;20022;-82
2023/03/21 08:49:57;;;;;;;24.80;12.50;;;;;;;16.31;48.07;101175.34;4987639;28;20030;-86
2023/03/21 08:52:23;;;;;;;27.55;12.18;;;;;;;16.35;48.32;101155.13;4982591;28;20462;-86
2023/03/21 08:54:48;;;;;;;24.50;11.20;;;;;;;16.59;47.68;101178.81;4937661;28;20054;-94
2023/03/21 08:57:14;;;;;;;22.13;11.23;;;;;;;16.67;49.07;101158.25;4973434;28;20443;-84
2023/03/21 08:59:39;;;;;;;21.25;11.50;;;;;;;16.71;47.97;101159.75;4975175;28;20104;-80
2023/03/21 09:02:06;;;;;;;52.20;25.25;;;;;;;16.84;48.90;101167.63;4974958;28;20037;-85
2023/03/21 09:04:31;;;;;;;23.35;12.35;;;;;;;16.85;48.69;101136.16;5005931;28;20517;-89
2023/03/21 09:07:00;;;;;;;25.58;12.77;;;;;;;17.00;47.20;101159.56;5010121;28;20034;-85
2023/03/21 09:09:26;;;;;;;22.60;12.15;;;;;;;17.14;48.19;101165.56;5007397;28;20025;-85
2023/03/21 09:11:52;;;;;;;24.55;13.23;;;;;;;17.12;47.59;101158.78;5002800;28;20031;-87
2023/03/21 09:14:17;;;;;;;26.10;13.60;;;;;;;17.08;46.94;101152.91;4991064;28;20459;-90
2023/03/21 09:16:43;;;;;;;16.50;9.98;;;;;;;17.30;47.20;101154.03;4995668;28;20026;-84
2023/03/21 09:19:08;;;;;;;19.48;10.57;;;;;;;17.40;48.50;101140.25;4991209;28;20469;-89
2023/03/21 09:21:34;;;;;;;22.55;12.32;;;;;;;17.56;48.01;101149.63;4990448;28;20030;-86
2023/03/21 09:24:00;;;;;;;18.83;10.13;;;;;;;17.69;46.68;101147.81;4987037;28;20479;-86
2023/03/21 09:26:26;;;;;;;22.77;10.25;;;;;;;17.55;45.31;101142.72;4992257;28;20034;-85
2023/03/21 09:28:53;;;;;;;18.10;10.25;;;;;;;17.53;45.67;101140.22;5000849;28;20412;-86
2023/03/21 09:31:24;;;;;;;21.98;11.02;;;;;;;17.61;45.91;101143.16;4987385;28;20029;-82
2023/03/21 09:33:50;;;;;;;18.97;10.23;;;;;;;17.56;45.42;101133.94;4999196;28;20034;-94
2023/03/21 09:36:19;;;;;;;28.27;10.98;;;;;;;17.64;45.36;101142.91;4975184;28;20136;-92
2023/03/21 09:38:45;;;;;;;20.20;9.13;;;;;;;17.65;46.45;101135.91;4966865;28;20088;-83
2023/03/21 09:41:20;;;;;;;20.15;11.00;;;;;;;17.63;45.14;101128.16;4989589;28;20415;-83
2023/03/21 09:43:55;;;;;;;18.90;10.07;;;;;;;17.57;45.93;101117.28;4976182;28;20042;-89
2023/03/21 09:46:44;;;;;;;19.58;10.07;;;;;;;17.84;45.53;101143.34;4992042;28;20081;-84
2023/03/21 09:49:17;;;;;;;19.83;10.52;;;;;;;17.84;47.10;101136.31;4998071;28;20121;-85
2023/03/21 09:51:48;;;;;;;21.60;10.85;;;;;;;18.00;44.31;101139.50;4993733;28;20030;-86
2023/03/21 09:54:21;;;;;;;20.83;11.20;;;;;;;17.95;44.69;101139.00;4966568;28;20061;-80
2023/03/21 09:56:46;;;;;;;20.38;10.30;;;;;;;17.87;44.98;101128.22;4983545;28;20062;-83
2023/03/21 09:59:20;;;;;;;27.55;11.43;;;;;;;17.99;45.75;101134.38;4991824;28;20030;-83
2023/03/21 10:01:46;;;;;;;18.40;10.88;;;;;;;17.97;45.10;101124.00;4980749;28;20030;-86
2023/03/21 10:04:12;;;;;;;18.75;11.35;;;;;;;17.93;44.94;101127.81;4977974;28;20038;-81
2023/03/21 10:06:40;;;;;;;28.38;12.93;;;;;;;18.11;45.12;101132.66;4967052;28;20133;-85
2023/03/21 10:09:39;;;;;;;28.17;13.00;;;;;;;18.20;45.71;101134.63;4976503;28;20562;-82
2023/03/21 10:12:08;;;;;;;20.13;10.85;;;;;;;18.18;44.34;101102.44;4996992;28;20046;-81
2023/03/21 10:14:34;;;;;;;19.92;10.43;;;;;;;18.39;45.18;101140.19;4974126;28;20030;-80
2023/03/21 10:17:21;;;;;;;21.25;11.90;;;;;;;18.41;44.47;101122.56;4995415;28;20022;-84
2023/03/21 10:20:09;;;;;;;27.88;12.07;;;;;;;18.47;43.98;101129.94;5007689;28;20523;-83
2023/03/21 10:22:36;;;;;;;21.35;11.77;;;;;;;18.47;44.10;101127.34;4974693;28;20110;-80
2023/03/21 10:25:02;;;;;;;31.55;11.85;;;;;;;18.42;44.12;101098.03;4995947;28;20034;-86
2023/03/21 10:27:28;;;;;;;27.67;12.27;;;;;;;18.62;43.69;101118.34;5000181;28;20060;-83
2023/03/21 10:29:56;;;;;;;25.00;13.10;;;;;;;18.44;43.32;101087.44;5008545;28;20076;-87
2023/03/21 10:32:21;;;;;;;19.50;11.05;;;;;;;18.62;43.26;101102.63;5008461;28;20030;-84
2023/03/21 10:34:57;;;;;;;28.85;10.98;;;;;;;18.69;42.61;101112.69;4991540;28;20049;-83
2023/03/21 10:37:23;;;;;;;25.25;10.80;;;;;;;18.73;42.56;101101.00;5009972;28;20034;-84
2023/03/21 10:39:50;;;;;;;27.25;9.80;;;;;;;18.60;43.04;101093.22;4992851;28;20117;-81
2023/03/21 10:42:26;;;;;;;11.98;7.20;;;;;;;18.60;42.62;101091.44;4992969;28;20129;-82
2023/03/21 10:44:53;;;;;;;15.80;9.45;;;;;;;18.66;43.10;101105.03;4995017;28;20085;-81
2023/03/21 10:47:26;;;;;;;23.35;9.82;;;;;;;18.47;43.11;101069.69;5008353;28;20054;-79
2023/03/21 10:49:51;;;;;;;19.90;9.38;;;;;;;18.62;42.37;101100.00;5009048;28;20056;-80
2023/03/21 10:52:19;;;;;;;19.58;10.85;;;;;;;18.61;43.06;101094.88;4981991;28;20026;-80
2023/03/21 10:54:44;;;;;;;19.80;10.25;;;;;;;18.59;43.62;101097.63;4961575;28;20112;-83
2023/03/21 10:57:28;;;;;;;22.55;11.20;;;;;;;18.50;43.94;101079.97;4979034;28;20466;-84
2023/03/21 10:59:56;;;;;;;25.73;11.70;;;;;;;18.56;43.82;101092.59;4993386;28;20553;-85
2023/03/21 11:02:34;;;;;;;20.02;11.63;;;;;;;18.50;43.81;101087.84;4984618;28;20041;-80
2023/03/21 11:05:07;;;;;;;26.73;11.02;;;;;;;18.56;44.15;101083.91;4996994;28;20037;-79
2023/03/21 11:07:34;;;;;;;22.13;9.63;;;;;;;18.31;44.25;101027.28;5008084;28;20029;-80
2023/03/21 11:10:00;;;;;;;18.05;9.45;;;;;;;18.67;44.40;101070.84;4987842;28;20550;-79
2023/03/21 11:12:32;;;;;;;23.27;9.98;;;;;;;18.71;43.42;101061.81;4984656;28;20034;-81
2023/03/21 11:14:58;;;;;;;21.23;9.82;;;;;;;18.71;42.60;101043.47;5008213;28;20037;-80
2023/03/21 11:17:27;;;;;;;20.98;9.77;;;;;;;18.77;43.61;101044.78;4992420;28;20124;-81
2023/03/21 11:20:00;;;;;;;20.85;9.68;;;;;;;18.89;43.07;101059.59;5007617;28;20029;-81
2023/03/21 11:22:30;;;;;;;24.88;11.80;;;;;;;18.90;42.68;101046.34;4992328;28;20315;-80